createdAt,value
2018-07-08T00:00:57.815Z,64.26
2018-07-08T00:03:29.615Z,64.94
2018-07-08T00:06:02.557Z,64.40
2018-07-08T00:08:36.047Z,64.33
2018-07-08T00:11:09.233Z,64.27
2018-07-08T00:13:40.677Z,63.89
2018-07-08T00:16:14.122Z,64.15
2018-07-08T00:18:48.857Z,64.27
2018-07-08T00:21:20.623Z,63.95
2018-07-08T00:23:52.083Z,64.64
2018-07-08T00:26:25.234Z,64.97
2018-07-08T00:28:57.384Z,65.47
2018-07-08T00:31:27.593Z,65.76
2018-07-08T00:34:00.757Z,66.39
2018-07-08T00:36:32.399Z,67.01
2018-07-08T00:39:04.470Z,67.41
2018-07-08T00:41:34.420Z,67.98
2018-07-08T00:44:08.219Z,68.09
2018-07-08T00:46:41.252Z,68.27
2018-07-08T00:49:13.407Z,68.12
2018-07-08T00:51:43.536Z,67.72
2018-07-08T00:54:15.149Z,67.97
2018-07-08T00:56:48.787Z,67.92
2018-07-08T00:59:20.714Z,68.14
2018-07-08T01:01:53.124Z,68.77
2018-07-08T01:04:23.829Z,68.97
2018-07-08T01:06:58.819Z,69.26
2018-07-08T01:09:33.754Z,69.66
2018-07-08T01:12:03.746Z,69.64
2018-07-08T01:14:37.998Z,70.06
2018-07-08T01:17:10.037Z,70.27
2018-07-08T01:19:43.143Z,70.92
2018-07-08T01:22:13.218Z,70.66
2018-07-08T01:24:46.597Z,70.71
2018-07-08T01:27:18.336Z,70.84
2018-07-08T01:29:49.921Z,70.51
2018-07-08T01:32:23.102Z,70.32
2018-07-08T01:34:53.227Z,70.12
2018-07-08T01:37:25.318Z,70.15
2018-07-08T01:39:58.522Z,70.17
2018-07-08T01:42:33.930Z,70.32
2018-07-08T01:45:05.598Z,70.58
2018-07-08T01:47:38.572Z,70.99
2018-07-08T01:50:10.715Z,71.29
2018-07-08T01:52:43.672Z,71.43
2018-07-08T01:55:15.408Z,71.56
2018-07-08T01:57:50.394Z,71.46
2018-07-08T02:00:21.879Z,71.46
2018-07-08T02:02:56.524Z,71.71
2018-07-08T02:05:29.853Z,71.56
2018-07-08T02:08:03.243Z,71.67
2018-07-08T02:10:36.206Z,71.81
2018-07-08T02:13:07.812Z,71.61
2018-07-08T02:15:42.603Z,70.97
2018-07-08T02:18:15.747Z,71.21
2018-07-08T02:20:47.535Z,71.32
2018-07-08T02:23:20.919Z,71.18
2018-07-08T02:25:52.526Z,71.20
2018-07-08T02:28:22.449Z,71.05
2018-07-08T02:30:54.487Z,71.31
2018-07-08T02:33:24.181Z,71.14
2018-07-08T02:35:54.234Z,71.39
2018-07-08T02:38:27.462Z,71.57
2018-07-08T02:40:58.998Z,71.85
2018-07-08T02:43:30.614Z,72.07
2018-07-08T02:46:02.327Z,72.71
2018-07-08T02:48:35.533Z,72.83
2018-07-08T02:51:07.136Z,72.85
2018-07-08T02:53:40.984Z,73.21
2018-07-08T02:56:12.926Z,72.99
2018-07-08T02:58:46.219Z,73.55
2018-07-08T03:01:17.905Z,73.42
2018-07-08T03:03:47.992Z,73.53
2018-07-08T03:06:21.363Z,73.25
2018-07-08T03:08:51.873Z,73.38
2018-07-08T03:11:22.354Z,72.42
2018-07-08T03:13:55.195Z,71.97
2018-07-08T03:16:28.798Z,71.83
2018-07-08T03:19:00.318Z,72.09
2018-07-08T03:21:33.056Z,72.67
2018-07-08T03:24:05.783Z,71.14
2018-07-08T03:26:37.741Z,70.88
2018-07-08T03:29:10.974Z,70.34
2018-07-08T03:31:43.533Z,70.77
2018-07-08T03:34:15.547Z,70.87
2018-07-08T03:36:46.050Z,70.77
2018-07-08T03:39:17.577Z,70.22
2018-07-08T03:41:48.260Z,70.43
2018-07-08T03:44:21.852Z,69.87
2018-07-08T03:46:53.383Z,69.10
2018-07-08T03:49:24.925Z,68.85
2018-07-08T03:51:58.047Z,67.70
2018-07-08T03:54:32.047Z,67.06
2018-07-08T03:57:02.566Z,67.09
2018-07-08T03:59:37.346Z,66.55
2018-07-08T04:02:10.648Z,66.67
2018-07-08T04:04:42.077Z,66.24
2018-07-08T04:07:15.295Z,65.47
2018-07-08T04:09:46.898Z,64.82
2018-07-08T04:12:18.573Z,64.04
2018-07-08T04:14:50.200Z,63.81
2018-07-08T04:17:20.379Z,63.53
2018-07-08T04:19:51.998Z,63.61
2018-07-08T04:22:25.010Z,61.92
2018-07-08T04:24:58.001Z,61.32
2018-07-08T04:27:32.151Z,60.64
2018-07-08T04:30:05.046Z,60.06
2018-07-08T04:32:38.324Z,58.43
2018-07-08T04:35:08.752Z,57.19
2018-07-08T04:37:40.191Z,57.33
2018-07-08T04:40:10.326Z,55.88
2018-07-08T04:42:41.998Z,55.33
2018-07-08T04:45:13.419Z,54.34
2018-07-08T04:47:46.377Z,53.13
2018-07-08T04:50:19.482Z,53.83
2018-07-08T04:52:54.210Z,53.49
2018-07-08T04:55:24.181Z,52.76
2018-07-08T04:57:57.185Z,52.79
2018-07-08T05:00:30.037Z,50.85
2018-07-08T05:03:03.796Z,51.56
2018-07-08T05:05:35.803Z,51.34
2018-07-08T05:08:07.243Z,50.13
2018-07-08T05:10:38.935Z,51.31
2018-07-08T05:13:12.285Z,50.82
2018-07-08T05:15:45.751Z,48.49
2018-07-08T05:18:17.286Z,50.44
2018-07-08T05:20:48.777Z,46.07
2018-07-08T05:23:19.081Z,47.34
2018-07-08T05:25:52.194Z,46.95
2018-07-08T05:28:21.400Z,46.91
2018-07-08T05:30:54.729Z,46.51
2018-07-08T05:33:24.844Z,47.66
2018-07-08T05:35:59.763Z,47.93
2018-07-08T05:38:31.204Z,45.60
2018-07-08T05:41:02.712Z,44.50
2018-07-08T05:43:32.692Z,44.23
2018-07-08T05:46:04.075Z,44.66
2018-07-08T05:48:36.974Z,45.03
2018-07-08T05:51:08.570Z,45.55
2018-07-08T05:53:42.260Z,42.85
2018-07-08T05:56:14.346Z,44.33
2018-07-08T05:58:46.025Z,42.98
2018-07-08T06:01:18.783Z,42.92
2018-07-08T06:03:51.785Z,44.23
2018-07-08T06:06:24.753Z,43.09
2018-07-08T06:08:56.215Z,43.36
2018-07-08T06:11:29.759Z,42.58
2018-07-08T06:14:02.829Z,45.13
2018-07-08T06:16:36.254Z,45.46
2018-07-08T06:19:09.238Z,42.69
2018-07-08T06:21:43.619Z,40.71
2018-07-08T06:24:13.724Z,43.52
2018-07-08T06:26:43.826Z,42.14
2018-07-08T06:29:14.763Z,43.38
2018-07-08T06:31:46.821Z,43.28
2018-07-08T06:34:19.685Z,46.33
2018-07-08T06:36:51.127Z,42.82
2018-07-08T06:39:24.008Z,40.69
2018-07-08T06:41:58.396Z,40.99
2018-07-08T06:44:29.843Z,39.73
2018-07-08T06:47:03.312Z,39.79
2018-07-08T06:49:36.231Z,37.81
2018-07-08T06:52:09.275Z,40.89
2018-07-08T06:54:40.600Z,40.72
2018-07-08T06:57:12.017Z,37.78
2018-07-08T06:59:46.875Z,36.95
2018-07-08T07:02:19.746Z,37.42
2018-07-08T07:04:51.137Z,37.22
2018-07-08T07:07:24.131Z,37.07
2018-07-08T07:09:56.966Z,37.17
2018-07-08T07:12:29.776Z,36.76
2018-07-08T07:15:04.225Z,36.40
2018-07-08T07:17:33.519Z,35.25
2018-07-08T07:20:03.429Z,32.54
2018-07-08T07:22:37.647Z,33.28
2018-07-08T07:25:12.390Z,35.67
2018-07-08T07:27:45.288Z,34.19
2018-07-08T07:30:18.190Z,33.87
2018-07-08T07:32:51.185Z,31.67
2018-07-08T07:35:24.086Z,31.54
2018-07-08T07:37:58.521Z,32.48
2018-07-08T07:40:31.446Z,34.97
2018-07-08T07:43:02.023Z,34.23
2018-07-08T07:45:36.280Z,33.52
2018-07-08T07:48:09.861Z,32.74
2018-07-08T07:50:42.728Z,30.69
2018-07-08T07:53:12.387Z,31.60
2018-07-08T07:55:43.903Z,34.43
2018-07-08T07:58:15.281Z,32.34
2018-07-08T08:00:46.636Z,32.13
2018-07-08T08:03:18.023Z,32.83
2018-07-08T08:05:52.515Z,32.16
2018-07-08T08:08:24.042Z,32.36
2018-07-08T08:10:58.378Z,30.29
2018-07-08T08:13:31.248Z,32.55
2018-07-08T08:16:04.085Z,31.86
2018-07-08T08:18:37.276Z,30.93
2018-07-08T08:21:10.976Z,30.15
2018-07-08T08:23:43.848Z,31.60
2018-07-08T08:26:15.820Z,30.44
2018-07-08T08:28:48.726Z,31.22
2018-07-08T08:31:23.458Z,30.92
2018-07-08T08:34:42.089Z,31.45
2018-07-08T08:37:15.031Z,33.47
2018-07-08T08:39:48.039Z,30.33
2018-07-08T08:42:19.619Z,31.79
2018-07-08T08:44:55.135Z,29.78
2018-07-08T08:47:28.348Z,29.72
2018-07-08T08:50:01.276Z,30.96
2018-07-08T08:52:31.875Z,29.60
2018-07-08T08:55:04.593Z,29.21
2018-07-08T08:57:38.978Z,33.74
2018-07-08T09:00:21.838Z,30.89
2018-07-08T09:02:53.841Z,29.21
2018-07-08T09:05:27.015Z,30.99
2018-07-08T09:07:59.488Z,29.89
2018-07-08T09:10:32.420Z,29.03
2018-07-08T09:13:05.280Z,28.36
2018-07-08T09:15:38.559Z,27.60
2018-07-08T09:18:12.995Z,29.62
2018-07-08T09:20:44.607Z,29.50
2018-07-08T09:23:18.908Z,28.06
2018-07-08T09:25:50.290Z,29.76
2018-07-08T09:28:21.716Z,31.02
2018-07-08T09:30:53.242Z,31.46
2018-07-08T09:33:27.942Z,30.02
2018-07-08T09:36:00.929Z,29.13
2018-07-08T09:38:32.511Z,30.04
2018-07-08T09:41:03.880Z,29.47
2018-07-08T09:43:35.294Z,30.13
2018-07-08T09:46:06.786Z,33.04
2018-07-08T09:48:38.226Z,31.98
2018-07-08T09:51:09.623Z,30.78
2018-07-08T09:53:40.120Z,29.31
2018-07-08T09:56:13.358Z,28.07
2018-07-08T09:58:44.773Z,31.33
2018-07-08T10:01:19.431Z,29.17
2018-07-08T10:03:52.549Z,30.34
2018-07-08T10:06:25.569Z,29.79
2018-07-08T10:08:58.130Z,31.46
2018-07-08T10:11:32.320Z,32.14
2018-07-08T10:14:05.277Z,31.57
2018-07-08T10:16:36.573Z,31.83
2018-07-08T10:19:08.072Z,33.10
2018-07-08T10:21:40.419Z,32.72
2018-07-08T10:24:14.833Z,32.65
2018-07-08T10:26:47.296Z,33.10
2018-07-08T10:29:21.819Z,31.69
2018-07-08T10:31:55.723Z,33.10
2018-07-08T10:34:27.267Z,30.73
2018-07-08T10:36:58.701Z,30.96
2018-07-08T10:39:31.811Z,33.69
2018-07-08T10:42:05.080Z,32.82
2018-07-08T10:44:36.369Z,31.24
2018-07-08T10:47:08.844Z,33.10
2018-07-08T10:49:43.167Z,32.39
2018-07-08T10:52:16.199Z,32.76
2018-07-08T10:54:49.168Z,33.35
2018-07-08T10:57:22.467Z,35.08
2018-07-08T10:59:55.503Z,34.21
2018-07-08T11:02:28.915Z,34.01
2018-07-08T11:05:00.441Z,34.55
2018-07-08T11:07:33.705Z,32.58
2018-07-08T11:10:03.078Z,37.42
2018-07-08T11:12:36.190Z,35.42
2018-07-08T11:15:09.451Z,36.22
2018-07-08T11:17:43.712Z,35.27
2018-07-08T11:20:16.604Z,36.11
2018-07-08T11:22:50.178Z,36.54
2018-07-08T11:25:23.288Z,36.86
2018-07-08T11:27:55.336Z,36.50
2018-07-08T11:30:28.147Z,34.34
2018-07-08T11:33:01.459Z,32.58
2018-07-08T11:35:34.400Z,32.93
2018-07-08T11:38:06.102Z,33.73
2018-07-08T11:40:39.169Z,35.56
2018-07-08T11:43:09.864Z,31.56
2018-07-08T11:45:44.670Z,34.07
2018-07-08T11:48:19.019Z,32.85
2018-07-08T11:50:51.535Z,30.50
2018-07-08T11:53:21.468Z,32.77
2018-07-08T11:55:55.789Z,32.96
2018-07-08T11:58:27.725Z,32.81
2018-07-08T12:00:59.113Z,33.30
2018-07-08T12:03:30.975Z,32.28
2018-07-08T12:06:02.450Z,34.50
2018-07-08T12:08:32.512Z,34.18
2018-07-08T12:11:05.453Z,31.15
2018-07-08T12:13:37.099Z,33.60
2018-07-08T12:16:10.017Z,34.17
2018-07-08T12:18:41.463Z,33.09
2018-07-08T12:21:14.877Z,32.79
2018-07-08T12:23:46.278Z,35.67
2018-07-08T12:26:17.701Z,35.13
2018-07-08T12:28:51.530Z,33.05
2018-07-08T12:31:24.688Z,31.62
2018-07-08T12:33:58.997Z,33.01
2018-07-08T12:36:31.823Z,35.21
2018-07-08T12:39:06.773Z,33.59
2018-07-08T12:41:41.308Z,35.54
2018-07-08T12:44:15.106Z,36.70
2018-07-08T12:46:49.366Z,33.78
2018-07-08T12:49:22.254Z,32.46
2018-07-08T12:51:53.634Z,33.40
2018-07-08T12:54:26.701Z,35.92
2018-07-08T12:56:58.617Z,34.62
2018-07-08T12:59:30.128Z,34.38
2018-07-08T13:02:03.098Z,34.92
2018-07-08T13:04:36.028Z,37.53
2018-07-08T13:07:08.988Z,35.19
2018-07-08T13:09:40.859Z,34.39
2018-07-08T13:12:15.673Z,35.03
2018-07-08T13:14:47.573Z,34.75
2018-07-08T13:17:18.567Z,37.30
2018-07-08T13:19:51.489Z,36.48
2018-07-08T13:22:24.311Z,34.59
2018-07-08T13:24:56.639Z,34.21
2018-07-08T13:27:29.597Z,37.56
2018-07-08T13:30:01.031Z,34.08
2018-07-08T13:32:32.848Z,34.01
2018-07-08T13:35:03.342Z,35.24
2018-07-08T13:37:33.817Z,38.25
2018-07-08T13:40:05.777Z,35.18
2018-07-08T13:42:35.722Z,34.76
2018-07-08T13:45:07.185Z,35.61
2018-07-08T13:47:38.547Z,35.47
2018-07-08T13:50:11.815Z,34.59
2018-07-08T13:52:45.247Z,34.10
2018-07-08T13:55:15.349Z,36.71
2018-07-08T13:57:46.983Z,34.62
2018-07-08T14:00:18.512Z,34.73
2018-07-08T14:02:48.653Z,33.76
2018-07-08T14:05:19.344Z,36.31
2018-07-08T14:07:52.683Z,33.86
2018-07-08T14:10:22.612Z,35.69
2018-07-08T14:12:54.072Z,34.65
2018-07-08T14:15:25.549Z,36.02
2018-07-08T14:17:58.279Z,33.32
2018-07-08T14:20:32.765Z,33.79
2018-07-08T14:23:06.404Z,34.46
2018-07-08T14:25:41.168Z,34.51
2018-07-08T14:28:12.784Z,36.08
2018-07-08T14:30:47.232Z,32.31
2018-07-08T14:33:21.507Z,33.72
2018-07-08T14:35:55.934Z,34.71
2018-07-08T14:38:27.364Z,36.80
2018-07-08T14:40:57.849Z,33.38
2018-07-08T14:43:31.020Z,34.24
2018-07-08T14:46:03.925Z,33.57
2018-07-08T14:48:35.414Z,33.61
2018-07-08T14:51:07.251Z,34.09
2018-07-08T14:53:39.430Z,34.69
2018-07-08T14:56:10.750Z,36.07
2018-07-08T14:58:45.111Z,36.92
2018-07-08T15:01:17.971Z,35.46
2018-07-08T15:03:50.879Z,31.99
2018-07-08T15:06:23.707Z,34.89
2018-07-08T15:08:56.969Z,35.06
2018-07-08T15:11:29.443Z,35.75
2018-07-08T15:14:02.320Z,36.36
2018-07-08T15:16:36.705Z,35.15
2018-07-08T15:19:09.592Z,35.51
2018-07-08T15:21:44.102Z,34.53
2018-07-08T15:24:19.505Z,35.07
2018-07-08T15:26:53.949Z,34.56
2018-07-08T15:29:28.207Z,34.82
2018-07-08T15:32:01.079Z,36.14
2018-07-08T15:34:32.876Z,34.71
2018-07-08T15:37:05.686Z,35.76
2018-07-08T15:39:37.581Z,35.23
2018-07-08T15:42:09.586Z,36.52
2018-07-08T15:44:42.897Z,35.25
2018-07-08T15:47:15.852Z,36.83
2018-07-08T15:49:47.265Z,35.55
2018-07-08T15:52:18.729Z,35.01
2018-07-08T15:54:51.596Z,35.37
2018-07-08T15:57:25.939Z,34.58
2018-07-08T15:59:55.974Z,34.79
2018-07-08T16:02:28.941Z,34.62
2018-07-08T16:05:00.934Z,35.12
2018-07-08T16:07:34.892Z,35.10
2018-07-08T16:10:05.942Z,35.90
2018-07-08T16:12:37.477Z,35.82
2018-07-08T16:15:10.723Z,37.47
2018-07-08T16:17:43.572Z,36.47
2018-07-08T16:20:15.121Z,38.02
2018-07-08T16:22:49.031Z,38.75
2018-07-08T16:25:22.017Z,37.27
2018-07-08T16:27:54.421Z,36.83
2018-07-08T16:30:25.797Z,36.98
2018-07-08T16:32:58.818Z,38.70
2018-07-08T16:35:30.277Z,38.95
2018-07-08T16:38:03.211Z,40.11
2018-07-08T16:40:33.657Z,39.64
2018-07-08T16:43:06.263Z,40.06
2018-07-08T16:45:40.645Z,38.67
2018-07-08T16:48:15.151Z,38.41
2018-07-08T16:50:50.289Z,36.74
2018-07-08T16:53:20.228Z,38.18
2018-07-08T16:55:51.703Z,38.50
2018-07-08T16:58:24.680Z,38.07
2018-07-08T17:00:57.443Z,35.82
2018-07-08T17:03:29.559Z,37.46
2018-07-08T17:05:59.640Z,39.64
2018-07-08T17:08:31.680Z,39.65
2018-07-08T17:11:05.073Z,39.10
2018-07-08T17:13:37.891Z,39.69
2018-07-08T17:16:12.318Z,38.95
2018-07-08T17:18:44.224Z,40.92
2018-07-08T17:21:15.834Z,40.49
2018-07-08T17:23:48.866Z,40.11
2018-07-08T17:26:20.482Z,39.79
2018-07-08T17:28:53.097Z,40.17
2018-07-08T17:31:24.749Z,41.19
2018-07-08T17:33:56.103Z,41.90
2018-07-08T17:36:29.090Z,42.13
2018-07-08T17:39:02.024Z,42.19
2018-07-08T17:41:32.195Z,42.72
2018-07-08T17:44:03.612Z,42.75
2018-07-08T17:46:38.535Z,42.45
2018-07-08T17:49:09.859Z,42.12
2018-07-08T17:51:42.840Z,42.70
2018-07-08T17:54:14.804Z,42.62
2018-07-08T17:56:48.692Z,43.44
2018-07-08T17:59:21.991Z,43.39
2018-07-08T18:01:54.899Z,43.68
2018-07-08T18:04:26.372Z,43.18
2018-07-08T18:07:00.830Z,43.66
2018-07-08T18:09:33.097Z,43.30
2018-07-08T18:12:04.918Z,43.46
2018-07-08T18:14:36.475Z,43.60
2018-07-08T18:17:06.497Z,44.30
2018-07-08T18:19:36.588Z,44.23
2018-07-08T18:22:09.705Z,44.59
2018-07-08T18:24:42.776Z,44.87
2018-07-08T18:27:15.881Z,45.83
2018-07-08T18:29:49.413Z,46.13
2018-07-08T18:32:20.861Z,46.04
2018-07-08T18:34:55.329Z,46.40
2018-07-08T18:37:29.019Z,46.86
2018-07-08T18:39:59.590Z,47.53
2018-07-08T18:42:32.692Z,47.18
2018-07-08T18:45:02.798Z,47.85
2018-07-08T18:47:32.992Z,47.80
2018-07-08T18:50:05.192Z,47.90
2018-07-08T18:52:39.768Z,46.95
2018-07-08T18:55:13.292Z,47.68
2018-07-08T18:57:45.345Z,47.54
2018-07-08T19:00:19.037Z,48.47
2018-07-08T19:02:53.531Z,48.13
2018-07-08T19:05:28.414Z,48.49
2018-07-08T19:07:58.430Z,49.18
2018-07-08T19:10:32.432Z,49.89
2018-07-08T19:13:06.622Z,50.71
2018-07-08T19:15:41.062Z,50.76
2018-07-08T19:18:14.845Z,51.30
2018-07-08T19:20:49.351Z,52.00
2018-07-08T19:23:23.112Z,52.39
2018-07-08T19:25:57.010Z,52.88
2018-07-08T19:28:30.616Z,52.53
2018-07-08T19:31:02.341Z,53.17
2018-07-08T19:33:36.228Z,53.76
2018-07-08T19:36:10.659Z,53.65
2018-07-08T19:38:43.499Z,53.93
2018-07-08T19:41:14.981Z,54.52
2018-07-08T19:43:46.452Z,54.96
2018-07-08T19:46:16.764Z,55.16
2018-07-08T19:48:51.123Z,55.60
2018-07-08T19:51:24.180Z,55.70
2018-07-08T19:53:57.721Z,56.31
2018-07-08T19:56:31.603Z,56.94
2018-07-08T19:59:04.970Z,56.92
2018-07-08T20:01:39.567Z,57.17
2018-07-08T20:04:11.040Z,57.09
2018-07-08T20:06:46.107Z,57.50
2018-07-08T20:09:20.505Z,58.39
2018-07-08T20:11:52.532Z,57.61
2018-07-08T20:14:24.249Z,57.62
2018-07-08T20:16:57.258Z,57.79
2018-07-08T20:19:29.086Z,57.67
2018-07-08T20:22:00.424Z,57.85
2018-07-08T20:24:33.419Z,58.32
2018-07-08T20:27:06.466Z,58.75
2018-07-08T20:29:37.891Z,58.79
2018-07-08T20:32:08.341Z,58.68
2018-07-08T20:34:42.841Z,59.17
2018-07-08T20:37:14.504Z,59.52
2018-07-08T20:39:47.702Z,59.36
2018-07-08T20:42:22.766Z,59.54
2018-07-08T20:44:55.832Z,59.76
2018-07-08T20:47:28.851Z,60.57
2018-07-08T20:50:03.238Z,60.68
2018-07-08T20:52:35.045Z,60.92
2018-07-08T20:55:09.446Z,61.16
2018-07-08T20:57:44.366Z,61.24
2018-07-08T21:00:18.888Z,61.01
2018-07-08T21:02:51.947Z,61.47
2018-07-08T21:05:25.490Z,61.75
2018-07-08T21:07:58.964Z,61.50
2018-07-08T21:10:34.135Z,61.60
2018-07-08T21:13:07.205Z,61.61
2018-07-08T21:15:38.830Z,61.94
2018-07-08T21:18:10.487Z,62.08
2018-07-08T21:20:41.432Z,62.38
2018-07-08T21:23:15.892Z,62.64
2018-07-08T21:25:50.334Z,62.50
2018-07-08T21:28:21.719Z,63.08
2018-07-08T21:30:53.552Z,63.24
2018-07-08T21:33:28.358Z,63.17
2018-07-08T21:36:01.337Z,63.23
2018-07-08T21:38:32.791Z,63.65
2018-07-08T21:41:05.839Z,63.50
2018-07-08T21:43:36.969Z,64.02
2018-07-08T21:46:07.065Z,64.50
2018-07-08T21:48:41.134Z,64.15
2018-07-08T21:51:12.616Z,64.47
2018-07-08T21:53:45.759Z,64.27
2018-07-08T21:56:18.433Z,64.48
2018-07-08T21:58:51.421Z,64.85
2018-07-08T22:01:26.359Z,65.29
2018-07-08T22:03:59.998Z,65.44
2018-07-08T22:06:31.576Z,65.77
2018-07-08T22:09:02.675Z,65.37
2018-07-08T22:11:35.603Z,65.76
2018-07-08T22:14:09.263Z,65.69
2018-07-08T22:16:40.801Z,66.11
2018-07-08T22:19:12.416Z,66.31
2018-07-08T22:21:45.611Z,66.27
2018-07-08T22:24:17.242Z,66.73
2018-07-08T22:26:51.285Z,66.96
2018-07-08T22:29:24.299Z,67.07
2018-07-08T22:31:58.753Z,66.79
2018-07-08T22:34:30.303Z,67.17
2018-07-08T22:37:01.763Z,67.38
2018-07-08T22:39:36.387Z,67.45
2018-07-08T22:42:11.032Z,67.52
2018-07-08T22:44:43.972Z,68.12
2018-07-08T22:47:16.954Z,68.18
2018-07-08T22:49:49.009Z,69.07
2018-07-08T22:52:23.395Z,68.70
2018-07-08T22:54:58.094Z,68.90
2018-07-08T22:57:31.714Z,69.00
2018-07-08T23:00:38.882Z,69.20
2018-07-08T23:03:44.223Z,69.21
2018-07-08T23:06:17.637Z,69.17
2018-07-08T23:08:48.475Z,68.77
2018-07-08T23:11:22.589Z,70.60
2018-07-08T23:13:58.224Z,70.86
2018-07-08T23:16:32.370Z,71.05
2018-07-08T23:19:03.875Z,71.25
2018-07-08T23:21:38.727Z,71.34
2018-07-08T23:24:11.868Z,71.39
2018-07-08T23:26:43.643Z,71.21
2018-07-08T23:29:15.322Z,70.46
2018-07-08T23:31:48.957Z,70.01
2018-07-08T23:34:20.650Z,70.07
2018-07-08T23:36:52.033Z,69.78
2018-07-08T23:39:25.906Z,69.71
2018-07-08T23:41:57.097Z,69.04
2018-07-08T23:44:31.069Z,69.04
2018-07-08T23:47:04.165Z,70.08
2018-07-08T23:49:38.339Z,71.01
2018-07-08T23:52:13.170Z,72.12
2018-07-08T23:54:45.113Z,70.92
2018-07-08T23:57:18.268Z,69.61
2018-07-08T23:59:52.360Z,71.14
